^^
Grace C. Lehan Memorial Weather Station Historical Data
 
Daily Summary for February 16, 2019 Units:  English    Metric   Both
Daily Weekly Monthly Yearly Custom
  Current: High: Low: Average:
Temperature: 40.1 °F 40.4 °F 32.0 °F 36.5 °F
Dew Point: 23.9 °F 32.8 °F 20.9 °F 24.2 °F
Humidity: 52% 74% 51% 61%
Wind Speed: 14.0mph 18.0mph 0.0mph 3.2mph
Wind Gust: 20.0mph 22.0mph - -
WindNorth - - WNW
Pressure: 29.81 in 29.83 in 29.68 in -
Precipitation: 0.00 in      
Historical Graphs
 
 
Tabular Data for February 16, 2019
Time Temperature Dew Point Pressure Wind Wind Speed Wind Gust Humidity Rainfall Rate (Hourly) solar
00:04 40.4 °F 32.8 °F 29.68 in Calm     74% 0.01 in 0.00 W/m2
00:09 40.2 °F 32.6 °F 29.68 in Calm   2.0 mph 74% 0.01 in 0.00 W/m2
00:14 40.1 °F 32.5 °F 29.69 in North 3.0 mph 5.0 mph 74% 0.01 in 0.00 W/m2
00:19 40.0 °F 32.1 °F 29.69 in Calm   5.0 mph 73% 0.01 in 0.00 W/m2
00:24 39.9 °F 32.0 °F 29.69 in Calm   5.0 mph 73% 0.01 in 0.00 W/m2
00:29 39.9 °F 32.0 °F 29.68 in Calm   5.0 mph 73% 0.01 in 0.00 W/m2
00:34 39.7 °F 31.8 °F 29.69 in North 1.0 mph 4.0 mph 73% 0.00 in 0.00 W/m2
00:39 39.6 °F 31.7 °F 29.69 in Calm   4.0 mph 73% 0.00 in 0.00 W/m2
00:44 39.5 °F 31.6 °F 29.69 in Calm   4.0 mph 73% 0.00 in 0.00 W/m2
00:49 39.4 °F 31.1 °F 29.69 in North 1.0 mph 4.0 mph 72% 0.00 in 0.00 W/m2
00:54 39.3 °F 30.7 °F 29.69 in NNW 9.0 mph 9.0 mph 71% 0.00 in 0.00 W/m2
00:59 39.4 °F 30.8 °F 29.69 in NNW 2.0 mph 9.0 mph 71% 0.00 in 0.00 W/m2
01:04 39.4 °F 30.8 °F 29.69 in Calm   4.0 mph 71% 0.00 in 0.00 W/m2
01:09 39.4 °F 30.4 °F 29.69 in NW 2.0 mph 4.0 mph 70% 0.00 in 0.00 W/m2
01:14 39.4 °F 30.4 °F 29.69 in NW 1.0 mph 5.0 mph 70% 0.00 in 0.00 W/m2
01:19 39.3 °F 30.4 °F 29.69 in NNW 3.0 mph 5.0 mph 70% 0.00 in 0.00 W/m2
01:24 39.3 °F 30.0 °F 29.69 in Calm   10.0 mph 69% 0.00 in 0.00 W/m2
01:29 39.3 °F 30.0 °F 29.70 in NW 5.0 mph 10.0 mph 69% 0.00 in 0.00 W/m2
01:34 39.2 °F 29.5 °F 29.69 in NW 1.0 mph 7.0 mph 68% 0.00 in 0.00 W/m2
01:39 39.2 °F 29.5 °F 29.69 in WNW 7.0 mph 11.0 mph 68% 0.00 in 0.00 W/m2
01:44 39.1 °F 29.1 °F 29.69 in Calm   11.0 mph 67% 0.00 in 0.00 W/m2
01:49 39.1 °F 29.1 °F 29.70 in Calm   11.0 mph 67% 0.00 in 0.00 W/m2
01:54 39.0 °F 29.4 °F 29.70 in Calm   11.0 mph 68% 0.00 in 0.00 W/m2
01:59 38.9 °F 29.2 °F 29.70 in Calm   11.0 mph 68% 0.00 in 0.00 W/m2
02:04 38.8 °F 29.2 °F 29.70 in Calm     68% 0.00 in 0.00 W/m2
02:09 38.7 °F 29.1 °F 29.71 in Calm     68% 0.00 in 0.00 W/m2
02:14 38.5 °F 29.2 °F 29.71 in Calm     69% 0.00 in 0.00 W/m2
02:19 38.3 °F 28.7 °F 29.71 in Calm   1.0 mph 68% 0.00 in 0.00 W/m2
02:24 38.2 °F 28.2 °F 29.70 in Calm   1.0 mph 67% 0.00 in 0.00 W/m2
02:29 38.1 °F 28.1 °F 29.70 in NW 3.0 mph 5.0 mph 67% 0.00 in 0.00 W/m2
02:34 37.9 °F 27.2 °F 29.71 in WNW 7.0 mph 13.0 mph 65% 0.00 in 0.00 W/m2
02:39 37.7 °F 26.6 °F 29.71 in WNW 6.0 mph 13.0 mph 64% 0.00 in 0.00 W/m2
02:44 37.6 °F 26.2 °F 29.71 in NW 9.0 mph 13.0 mph 63% 0.00 in 0.00 W/m2
02:49 37.4 °F 26.0 °F 29.71 in NW 2.0 mph 13.0 mph 63% 0.00 in 0.00 W/m2
02:54 37.3 °F 25.9 °F 29.71 in West 6.0 mph 13.0 mph 63% 0.00 in 0.00 W/m2
02:59 37.2 °F 25.8 °F 29.71 in WNW 3.0 mph 13.0 mph 63% 0.00 in 0.00 W/m2
03:04 37.1 °F 25.7 °F 29.71 in Calm   7.0 mph 63% 0.00 in 0.00 W/m2
03:09 36.9 °F 25.9 °F 29.71 in Calm   7.0 mph 64% 0.00 in 0.00 W/m2
03:14 36.8 °F 25.4 °F 29.71 in NW 1.0 mph 7.0 mph 63% 0.00 in 0.00 W/m2
03:19 36.6 °F 25.6 °F 29.71 in Calm   7.0 mph 64% 0.00 in 0.00 W/m2
03:24 36.5 °F 25.5 °F 29.72 in Calm   7.0 mph 64% 0.00 in 0.00 W/m2
03:29 36.4 °F 25.4 °F 29.71 in Calm   7.0 mph 64% 0.00 in 0.00 W/m2
03:34 36.3 °F 25.7 °F 29.72 in Calm     65% 0.00 in 0.00 W/m2
03:39 36.1 °F 25.5 °F 29.72 in Calm   3.0 mph 65% 0.00 in 0.00 W/m2
03:44 35.9 °F 25.7 °F 29.72 in Calm   3.0 mph 66% 0.00 in 0.00 W/m2
03:49 35.8 °F 25.9 °F 29.73 in Calm   3.0 mph 67% 0.00 in 0.00 W/m2
03:54 35.6 °F 25.4 °F 29.73 in NW 3.0 mph 9.0 mph 66% 0.00 in 0.00 W/m2
03:59 35.3 °F 24.4 °F 29.73 in Calm   9.0 mph 64% 0.00 in 0.00 W/m2
04:04 35.2 °F 24.3 °F 29.73 in NNW 5.0 mph 9.0 mph 64% 0.00 in 0.00 W/m2
04:09 35.0 °F 23.7 °F 29.73 in NNW 2.0 mph 12.0 mph 63% 0.00 in 0.00 W/m2
04:14 34.9 °F 23.2 °F 29.73 in NW 2.0 mph 12.0 mph 62% 0.00 in 0.00 W/m2
04:19 34.8 °F 23.5 °F 29.74 in Calm   12.0 mph 63% 0.00 in 0.00 W/m2
04:24 34.7 °F 23.4 °F 29.74 in NNW 1.0 mph 12.0 mph 63% 0.00 in 0.00 W/m2
04:29 34.6 °F 23.3 °F 29.75 in Calm   12.0 mph 63% 0.00 in 0.00 W/m2
04:34 34.4 °F 23.1 °F 29.75 in Calm     63% 0.00 in 0.00 W/m2
04:39 34.3 °F 23.0 °F 29.75 in Calm   1.0 mph 63% 0.00 in 0.00 W/m2
04:44 34.2 °F 22.9 °F 29.75 in Calm   1.0 mph 63% 0.00 in 0.00 W/m2
04:49 34.1 °F 22.8 °F 29.75 in Calm   1.0 mph 63% 0.00 in 0.00 W/m2
04:54 34.0 °F 22.7 °F 29.75 in Calm   1.0 mph 63% 0.00 in 0.00 W/m2
04:59 33.9 °F 22.6 °F 29.76 in North 3.0 mph 3.0 mph 63% 0.00 in 0.00 W/m2
05:04 33.8 °F 22.6 °F 29.76 in NNW 5.0 mph 5.0 mph 63% 0.00 in 0.00 W/m2
05:09 33.7 °F 22.5 °F 29.76 in Calm   7.0 mph 63% 0.00 in 0.00 W/m2
05:14 33.7 °F 22.5 °F 29.76 in WNW 1.0 mph 7.0 mph 63% 0.00 in 0.00 W/m2
05:19 33.6 °F 22.4 °F 29.76 in Calm   7.0 mph 63% 0.00 in 0.00 W/m2
05:24 33.6 °F 22.4 °F 29.76 in NNW 2.0 mph 7.0 mph 63% 0.00 in 0.00 W/m2
05:29 33.5 °F 22.3 °F 29.76 in Calm   7.0 mph 63% 0.00 in 0.00 W/m2
05:34 33.5 °F 22.3 °F 29.76 in NNW 4.0 mph 6.0 mph 63% 0.00 in 0.00 W/m2
05:39 33.4 °F 21.8 °F 29.76 in Calm   6.0 mph 62% 0.00 in 0.00 W/m2
05:44 33.4 °F 21.8 °F 29.76 in Calm   6.0 mph 62% 0.00 in 0.00 W/m2
05:49 33.4 °F 21.8 °F 29.76 in NNW 2.0 mph 6.0 mph 62% 0.00 in 0.00 W/m2
05:54 33.3 °F 21.7 °F 29.76 in Calm   6.0 mph 62% 0.00 in 0.00 W/m2
05:59 33.2 °F 22.0 °F 29.76 in Calm   6.0 mph 63% 0.00 in 0.00 W/m2
06:04 33.1 °F 21.9 °F 29.76 in Calm     63% 0.00 in 0.00 W/m2
06:09 33.0 °F 21.4 °F 29.75 in Calm   2.0 mph 62% 0.00 in 0.00 W/m2
06:14 32.9 °F 21.7 °F 29.76 in Calm   2.0 mph 63% 0.00 in 0.00 W/m2
06:19 32.8 °F 21.6 °F 29.76 in Calm   2.0 mph 63% 0.00 in 0.00 W/m2
06:24 32.6 °F 21.4 °F 29.76 in Calm   2.0 mph 63% 0.00 in 0.00 W/m2
06:29 32.5 °F 21.7 °F 29.76 in Calm   2.0 mph 64% 0.00 in 0.00 W/m2
06:34 32.4 °F 21.2 °F 29.76 in Calm     63% 0.00 in 0.00 W/m2
06:39 32.3 °F 21.1 °F 29.77 in Calm   2.0 mph 63% 0.00 in 0.00 W/m2
06:44 32.3 °F 21.5 °F 29.77 in Calm   2.0 mph 64% 0.00 in 0.00 W/m2
06:49 32.2 °F 21.0 °F 29.77 in Calm   5.0 mph 63% 0.00 in 0.00 W/m2
06:54 32.1 °F 20.9 °F 29.77 in Calm   5.0 mph 63% 0.00 in 0.00 W/m2
06:59 32.1 °F 20.9 °F 29.78 in Calm   5.0 mph 63% 0.00 in 5.00 W/m2
07:04 32.1 °F 20.9 °F 29.78 in Calm     63% 0.00 in 5.00 W/m2
07:09 32.0 °F 20.9 °F 29.78 in Calm   2.0 mph 63% 0.00 in 9.00 W/m2
07:14 32.0 °F 21.2 °F 29.78 in Calm   4.0 mph 64% 0.00 in 14.00 W/m2
07:19 32.0 °F 21.2 °F 29.79 in NNW 2.0 mph 4.0 mph 64% 0.00 in 14.00 W/m2
07:24 32.0 °F 20.9 °F 29.79 in Calm   5.0 mph 63% 0.00 in 19.00 W/m2
07:29 32.1 °F 21.3 °F 29.80 in Calm   5.0 mph 64% 0.00 in 16.00 W/m2
07:34 32.1 °F 21.3 °F 29.80 in NNW 2.0 mph 6.0 mph 64% 0.00 in 16.00 W/m2
07:39 32.2 °F 21.4 °F 29.80 in Calm   6.0 mph 64% 0.00 in 18.00 W/m2
07:44 32.3 °F 21.5 °F 29.80 in NNW 1.0 mph 6.0 mph 64% 0.00 in 19.00 W/m2
07:49 32.4 °F 21.6 °F 29.80 in WNW 6.0 mph 8.0 mph 64% 0.00 in 19.00 W/m2
07:54 32.6 °F 21.8 °F 29.80 in Calm   8.0 mph 64% 0.00 in 19.00 W/m2
07:59 32.8 °F 22.0 °F 29.81 in NW 6.0 mph 8.0 mph 64% 0.00 in 37.00 W/m2
08:04 33.0 °F 21.8 °F 29.81 in Calm   7.0 mph 63% 0.00 in 37.00 W/m2
08:09 33.2 °F 22.0 °F 29.81 in NNW 12.0 mph 14.0 mph 63% 0.00 in 23.00 W/m2
08:14 33.4 °F 22.2 °F 29.81 in NW 3.0 mph 15.0 mph 63% 0.00 in 23.00 W/m2
08:19 33.5 °F 22.3 °F 29.81 in North 3.0 mph 15.0 mph 63% 0.00 in 32.00 W/m2
08:24 33.7 °F 22.1 °F 29.81 in NW 5.0 mph 15.0 mph 62% 0.00 in 40.00 W/m2
08:29 33.9 °F 22.3 °F 29.82 in NW 4.0 mph 15.0 mph 62% 0.00 in 54.00 W/m2
08:34 34.1 °F 22.5 °F 29.82 in NW 9.0 mph 16.0 mph 62% 0.00 in 125.00 W/m2
08:39 34.3 °F 22.6 °F 29.82 in NNW 4.0 mph 16.0 mph 62% 0.00 in 44.00 W/m2
08:44 34.5 °F 22.8 °F 29.82 in Calm   16.0 mph 62% 0.00 in 84.00 W/m2
08:49 34.7 °F 23.0 °F 29.82 in NW 3.0 mph 16.0 mph 62% 0.00 in 28.00 W/m2
08:54 34.8 °F 22.7 °F 29.82 in WNW 6.0 mph 16.0 mph 61% 0.00 in 69.00 W/m2
08:59 35.0 °F 22.9 °F 29.82 in NNE 1.0 mph 16.0 mph 61% 0.00 in 28.00 W/m2
09:04 35.1 °F 22.6 °F 29.82 in NW 3.0 mph 6.0 mph 60% 0.00 in 28.00 W/m2
09:09 35.3 °F 22.4 °F 29.82 in NW 13.0 mph 17.0 mph 59% 0.00 in 42.00 W/m2
09:14 35.3 °F 22.0 °F 29.82 in NW 11.0 mph 22.0 mph 58% 0.00 in 30.00 W/m2
09:19 35.3 °F 21.6 °F 29.82 in NW 5.0 mph 22.0 mph 57% 0.00 in 39.00 W/m2
09:24 35.3 °F 22.0 °F 29.82 in WNW 2.0 mph 22.0 mph 58% 0.00 in 125.00 W/m2
09:29 35.4 °F 22.1 °F 29.82 in NW 7.0 mph 22.0 mph 58% 0.00 in 37.00 W/m2
09:34 35.6 °F 21.9 °F 29.82 in NNW 4.0 mph 12.0 mph 57% 0.00 in 46.00 W/m2
09:39 35.7 °F 22.0 °F 29.82 in NW 6.0 mph 16.0 mph 57% 0.00 in 35.00 W/m2
09:44 35.9 °F 22.2 °F 29.82 in WNW 2.0 mph 16.0 mph 57% 0.00 in 35.00 W/m2
09:49 36.0 °F 22.3 °F 29.82 in WNW 6.0 mph 16.0 mph 57% 0.00 in 40.00 W/m2
09:54 36.2 °F 22.4 °F 29.82 in NW 18.0 mph 18.0 mph 57% 0.00 in 47.00 W/m2
09:59 36.3 °F 22.5 °F 29.82 in North 3.0 mph 18.0 mph 57% 0.00 in 42.00 W/m2
10:04 36.4 °F 22.2 °F 29.83 in NW 4.0 mph 13.0 mph 56% 0.00 in 47.00 W/m2
10:09 36.4 °F 21.8 °F 29.83 in NNW 2.0 mph 14.0 mph 55% 0.00 in 46.00 W/m2
10:14 36.5 °F 21.9 °F 29.83 in WNW 11.0 mph 14.0 mph 55% 0.00 in 46.00 W/m2
10:19 36.6 °F 22.4 °F 29.83 in NW 4.0 mph 14.0 mph 56% 0.00 in 62.00 W/m2
10:24 36.8 °F 22.6 °F 29.83 in NNE 9.0 mph 14.0 mph 56% 0.00 in 47.00 W/m2
10:29 36.8 °F 22.2 °F 29.83 in North 2.0 mph 15.0 mph 55% 0.00 in 58.00 W/m2
10:34 36.9 °F 21.8 °F 29.82 in NW 3.0 mph 11.0 mph 54% 0.00 in 53.00 W/m2
10:39 37.0 °F 22.8 °F 29.83 in NW 1.0 mph 11.0 mph 56% 0.00 in 46.00 W/m2
10:44 37.1 °F 22.0 °F 29.83 in WNW 4.0 mph 11.0 mph 54% 0.00 in 47.00 W/m2
10:49 37.3 °F 22.2 °F 29.83 in NW 2.0 mph 20.0 mph 54% 0.00 in 44.00 W/m2
10:54 37.5 °F 21.9 °F 29.83 in NW 1.0 mph 20.0 mph 53% 0.00 in 44.00 W/m2
10:59 37.6 °F 22.0 °F 29.83 in WNW 3.0 mph 20.0 mph 53% 0.00 in 44.00 W/m2
11:04 37.8 °F 22.7 °F 29.83 in NW 5.0 mph 13.0 mph 54% 0.00 in 63.00 W/m2
11:09 37.9 °F 22.3 °F 29.83 in WNW 7.0 mph 14.0 mph 53% 0.00 in 47.00 W/m2
11:14 37.9 °F 22.8 °F 29.83 in NW 8.0 mph 14.0 mph 54% 0.00 in 84.00 W/m2
11:19 38.0 °F 21.9 °F 29.82 in Calm   19.0 mph 52% 0.00 in 130.00 W/m2
11:24 38.0 °F 22.4 °F 29.82 in NNW 5.0 mph 19.0 mph 53% 0.00 in 104.00 W/m2
11:29 38.0 °F 22.4 °F 29.82 in Calm   19.0 mph 53% 0.00 in 40.00 W/m2
11:34 38.1 °F 22.9 °F 29.82 in Calm   14.0 mph 54% 0.00 in 39.00 W/m2
11:39 38.3 °F 22.7 °F 29.82 in NW 7.0 mph 14.0 mph 53% 0.00 in 102.00 W/m2
11:44 38.4 °F 22.3 °F 29.82 in Calm   14.0 mph 52% 0.00 in 346.00 W/m2
11:49 38.5 °F 22.9 °F 29.82 in West 10.0 mph 18.0 mph 53% 0.00 in 88.00 W/m2
11:54 38.7 °F 23.1 °F 29.82 in NNE 7.0 mph 18.0 mph 53% 0.00 in 63.00 W/m2
11:59 38.8 °F 22.7 °F 29.82 in WNW 6.0 mph 18.0 mph 52% 0.00 in 104.00 W/m2
12:04 38.9 °F 22.8 °F 29.82 in WNW 12.0 mph 14.0 mph 52% 0.00 in 169.00 W/m2
12:09 39.0 °F 22.9 °F 29.82 in NW 7.0 mph 17.0 mph 52% 0.00 in 84.00 W/m2
12:14 39.1 °F 23.4 °F 29.81 in WNW 3.0 mph 17.0 mph 53% 0.00 in 114.00 W/m2
12:19 39.1 °F 22.5 °F 29.81 in West 4.0 mph 19.0 mph 51% 0.00 in 46.00 W/m2
12:24 39.1 °F 22.5 °F 29.81 in Calm   19.0 mph 51% 0.00 in 448.00 W/m2
12:29 39.3 °F 23.6 °F 29.81 in WNW 4.0 mph 19.0 mph 53% 0.00 in 121.00 W/m2
12:34 39.3 °F 23.2 °F 29.81 in West 11.0 mph 11.0 mph 52% 0.00 in 42.00 W/m2
12:39 39.4 °F 23.2 °F 29.81 in WNW 6.0 mph 15.0 mph 52% 0.00 in 153.00 W/m2
12:44 39.4 °F 22.8 °F 29.81 in WNW 3.0 mph 15.0 mph 51% 0.00 in 44.00 W/m2
12:49 39.3 °F 23.2 °F 29.80 in NNW 2.0 mph 15.0 mph 52% 0.00 in 95.00 W/m2
12:54 39.4 °F 23.7 °F 29.80 in NNW 10.0 mph 15.0 mph 53% 0.00 in 102.00 W/m2
12:59 39.5 °F 22.9 °F 29.80 in West 10.0 mph 18.0 mph 51% 0.00 in 81.00 W/m2
13:04 39.7 °F 23.5 °F 29.80 in NW 5.0 mph 12.0 mph 52% 0.00 in 72.00 W/m2
13:09 39.6 °F 23.4 °F 29.80 in NW 7.0 mph 15.0 mph 52% 0.00 in 49.00 W/m2
13:14 39.6 °F 23.9 °F 29.80 in North 2.0 mph 15.0 mph 53% 0.00 in 162.00 W/m2
13:19 39.4 °F 22.8 °F 29.80 in WNW 9.0 mph 17.0 mph 51% 0.00 in 81.00 W/m2
13:24 39.3 °F 23.2 °F 29.80 in NW 11.0 mph 17.0 mph 52% 0.00 in 53.00 W/m2
13:29 39.2 °F 23.1 °F 29.80 in WNW 13.0 mph 17.0 mph 52% 0.00 in 100.00 W/m2
13:34 39.2 °F 23.5 °F 29.80 in West 6.0 mph 17.0 mph 53% 0.00 in 60.00 W/m2
13:39 39.3 °F 23.2 °F 29.80 in NW 7.0 mph 17.0 mph 52% 0.00 in 84.00 W/m2
13:44 39.5 °F 23.4 °F 29.80 in WNW 9.0 mph 17.0 mph 52% 0.00 in 40.00 W/m2
13:49 39.5 °F 23.4 °F 29.80 in WNW 11.0 mph 17.0 mph 52% 0.00 in 93.00 W/m2
13:54 39.5 °F 23.4 °F 29.81 in WNW 6.0 mph 17.0 mph 52% 0.00 in 162.00 W/m2
13:59 39.4 °F 23.2 °F 29.81 in West 9.0 mph 17.0 mph 52% 0.00 in 74.00 W/m2
14:04 39.3 °F 23.6 °F 29.80 in NW 7.0 mph 14.0 mph 53% 0.00 in 47.00 W/m2
14:09 39.5 °F 23.8 °F 29.81 in NW 12.0 mph 17.0 mph 53% 0.00 in 93.00 W/m2
14:14 39.9 °F 24.2 °F 29.81 in WNW 7.0 mph 17.0 mph 53% 0.00 in 209.00 W/m2
14:19 40.0 °F 23.4 °F 29.81 in Calm   17.0 mph 51% 0.00 in 74.00 W/m2
14:24 40.1 °F 23.4 °F 29.81 in West 5.0 mph 20.0 mph 51% 0.00 in 47.00 W/m2
14:29 40.1 °F 23.9 °F 29.81 in North 14.0 mph 20.0 mph 52% 0.00 in 234.00 W/m2
Grace C. Lehan Memorial Weather Station
Compliments of Weather Underground - 4 mb